MA11 weather

Dog Fish Bar Heliport
Aquinnah, Massachusetts, United States

Public forecast

Using degrees Fahrenheit for public forecast. Weather courtesy of forecast.io.

Closest aviation weather report (METAR) to Dog Fish Bar Heliport

Closest report is Martha's Vineyard Airport, 8.9 nm (16.5 km) ENE. Retrieved 2020/08/06 05:53 UTC (39 minutes ago):

KMVY 060553Z AUTO 27005KT 10SM CLR 22/21 A3006 RMK AO2 SLP178 T02220206 10228 20217 51006

Closest aviation forecast (TAF) to Dog Fish Bar Heliport

Closest forecast is Cape Cod Coast Guard Air Station, 22.3 nm (41.2 km) NE. Retrieved 2020/08/06 06:33 UTC (0 seconds ago):

TAF KFMH 060531Z 0606/0706 22006KT P6SM SCT250 FM060800 34003KT P6SM SCT250 FM061400 04007KT P6SM SCT250 FM061800 16007KT P6SM SCT250 FM070000 00000KT P6SM BKN060